createdAt,value
2023-05-04T00:02:31.612Z,99669.71
2023-05-04T00:05:44.357Z,99672.11
2023-05-04T00:08:56.497Z,99660.17
2023-05-04T00:12:09.117Z,99669.22
2023-05-04T00:15:21.083Z,99664.64
2023-05-04T00:18:33.218Z,99669.47
2023-05-04T00:21:45.326Z,99667.30
2023-05-04T00:24:57.543Z,99663.53
2023-05-04T00:28:09.938Z,99659.80
2023-05-04T00:31:22.889Z,99658.83
2023-05-04T00:34:35.704Z,99664.48
2023-05-04T00:37:47.817Z,99663.66
2023-05-04T00:41:00.308Z,99661.48
2023-05-04T00:44:14.547Z,99661.73
2023-05-04T00:47:27.446Z,99653.86
2023-05-04T00:50:40.928Z,99651.72
2023-05-04T00:53:54.091Z,99652.92
2023-05-04T00:57:06.580Z,99655.19
2023-05-04T01:00:21.332Z,99658.83
2023-05-04T01:03:35.260Z,99655.50
2023-05-04T01:06:55.978Z,99657.72
2023-05-04T01:10:14.574Z,99653.05
2023-05-04T01:13:28.902Z,99658.35
2023-05-04T01:16:41.135Z,99647.95
2023-05-04T01:19:54.381Z,99646.16
2023-05-04T01:23:07.540Z,99656.05
2023-05-04T01:26:26.844Z,99658.16
2023-05-04T01:29:46.116Z,99659.30
2023-05-04T01:32:59.059Z,99652.19
2023-05-04T01:36:12.482Z,99650.86
2023-05-04T01:39:24.566Z,99648.39
2023-05-04T01:42:36.972Z,99632.72
2023-05-04T01:45:50.114Z,99638.25
2023-05-04T01:49:02.543Z,99641.16
2023-05-04T01:52:15.035Z,99644.41
2023-05-04T01:55:27.444Z,99643.51
2023-05-04T01:58:39.572Z,99647.48
2023-05-04T02:01:51.773Z,99647.94
2023-05-04T02:05:04.390Z,99641.31
2023-05-04T02:08:17.193Z,99643.61
2023-05-04T02:11:29.460Z,99644.29
2023-05-04T02:14:41.736Z,99635.84
2023-05-04T02:17:54.215Z,99644.14
2023-05-04T02:21:06.941Z,99647.13
2023-05-04T02:24:19.358Z,99639.53
2023-05-04T02:27:31.733Z,99635.88
2023-05-04T02:30:44.085Z,99636.33
2023-05-04T02:33:58.838Z,99637.27
2023-05-04T02:37:10.951Z,99645.02
2023-05-04T02:40:23.634Z,99639.43
2023-05-04T02:43:36.335Z,99637.72
2023-05-04T02:46:49.205Z,99639.14
2023-05-04T02:50:01.781Z,99625.90
2023-05-04T02:53:14.058Z,99630.50
2023-05-04T02:56:26.174Z,99628.83
2023-05-04T02:59:38.138Z,99634.30
2023-05-04T03:02:50.450Z,99634.25
2023-05-04T03:06:02.677Z,99631.31
2023-05-04T03:09:15.160Z,99631.23
2023-05-04T03:12:28.620Z,99632.13
2023-05-04T03:15:41.316Z,99639.13
2023-05-04T03:18:54.033Z,99641.90
2023-05-04T03:22:06.347Z,99652.14
2023-05-04T03:25:18.836Z,99655.67
2023-05-04T03:28:31.322Z,99657.75
2023-05-04T03:31:43.518Z,99651.06
2023-05-04T03:35:06.074Z,99650.75
2023-05-04T03:38:18.252Z,99652.38
2023-05-04T03:41:30.568Z,99651.10
2023-05-04T03:44:42.757Z,99656.63
2023-05-04T03:47:55.045Z,99654.38
2023-05-04T03:51:08.114Z,99650.67
2023-05-04T03:54:20.492Z,99655.66
2023-05-04T03:57:32.697Z,99651.92
2023-05-04T04:00:45.541Z,99654.05
2023-05-04T04:03:58.500Z,99666.31
2023-05-04T04:07:11.298Z,99668.84
2023-05-04T04:14:05.401Z,99672.36
2023-05-04T04:17:17.703Z,99663.17
2023-05-04T04:20:29.944Z,99666.78
2023-05-04T04:23:42.035Z,99660.83
2023-05-04T04:26:54.101Z,99670.06
2023-05-04T04:30:06.260Z,99663.48
2023-05-04T04:33:19.665Z,99665.47
2023-05-04T04:36:33.660Z,99674.69
2023-05-04T04:39:45.705Z,99675.00
2023-05-04T04:42:57.838Z,99670.99
2023-05-04T04:46:11.015Z,99672.78
2023-05-04T04:49:23.229Z,99675.42
2023-05-04T04:56:18.787Z,99683.19
2023-05-04T04:59:31.393Z,99684.78
2023-05-04T05:02:44.049Z,99677.30
2023-05-04T05:05:56.449Z,99686.96
2023-05-04T05:16:14.427Z,99685.83
2023-05-04T05:19:26.849Z,99676.20
2023-05-04T05:22:38.883Z,99673.08
2023-05-04T05:25:51.944Z,99683.88
2023-05-04T05:29:04.053Z,99682.77
2023-05-04T05:32:16.361Z,99690.46
2023-05-04T05:35:28.405Z,99686.13
2023-05-04T05:38:40.516Z,99683.11
2023-05-04T05:41:53.240Z,99689.03
2023-05-04T05:45:06.078Z,99694.45
2023-05-04T05:48:18.258Z,99685.24
2023-05-04T05:51:30.732Z,99690.28
2023-05-04T05:54:43.304Z,99675.78
2023-05-04T05:57:55.341Z,99677.81
2023-05-04T06:01:08.226Z,99683.39
2023-05-04T06:04:20.937Z,99685.51
2023-05-04T06:07:33.205Z,99681.68
2023-05-04T06:10:45.235Z,99694.10
2023-05-04T06:13:58.018Z,99677.50
2023-05-04T06:17:10.229Z,99676.74
2023-05-04T06:20:23.463Z,99678.27
2023-05-04T06:23:37.372Z,99677.03
2023-05-04T06:26:49.463Z,99675.78
2023-05-04T06:30:01.546Z,99672.48
2023-05-04T06:33:13.713Z,99674.45
2023-05-04T06:36:26.240Z,99672.84
2023-05-04T06:39:38.649Z,99669.67
2023-05-04T06:42:51.014Z,99660.30
2023-05-04T06:46:07.165Z,99654.53
2023-05-04T06:49:19.633Z,99656.11
2023-05-04T06:52:33.278Z,99665.92
2023-05-04T06:55:45.834Z,99644.97
2023-05-04T06:58:58.267Z,99642.55
2023-05-04T07:02:10.698Z,99637.10
2023-05-04T07:05:23.363Z,99653.80
2023-05-04T07:08:35.968Z,99650.48
2023-05-04T07:11:48.809Z,99642.30
2023-05-04T07:15:01.419Z,99650.78
2023-05-04T07:18:14.145Z,99648.78
2023-05-04T07:21:28.951Z,99649.46
2023-05-04T07:24:40.797Z,99652.95
2023-05-04T07:27:52.989Z,99638.45
2023-05-04T07:31:05.334Z,99649.94
2023-05-04T07:34:17.664Z,99641.16
2023-05-04T07:37:29.818Z,99644.42
2023-05-04T07:40:42.445Z,99653.31
2023-05-04T07:43:55.050Z,99644.91
2023-05-04T07:47:08.219Z,99643.56
2023-05-04T07:50:21.622Z,99654.98
2023-05-04T07:53:33.850Z,99649.05
2023-05-04T07:56:46.077Z,99652.28
2023-05-04T08:00:02.076Z,99643.04
2023-05-04T08:03:16.981Z,99653.36
2023-05-04T08:06:29.177Z,99650.17
2023-05-04T08:09:39.873Z,99657.55
2023-05-04T08:12:52.424Z,99651.89
2023-05-04T08:16:05.021Z,99657.91
2023-05-04T08:19:17.684Z,99649.22
2023-05-04T08:22:30.202Z,99650.78
2023-05-04T08:25:43.070Z,99648.81
2023-05-04T08:28:55.268Z,99642.34
2023-05-04T08:32:07.901Z,99642.79
2023-05-04T08:35:21.331Z,99644.25
2023-05-04T08:38:33.622Z,99641.08
2023-05-04T08:41:48.376Z,99640.47
2023-05-04T08:45:01.872Z,99637.67
2023-05-04T08:48:14.969Z,99630.72
2023-05-04T08:51:27.450Z,99626.05
2023-05-04T08:54:40.421Z,99630.14
2023-05-04T08:57:52.686Z,99630.86
2023-05-04T09:01:07.246Z,99620.45
2023-05-04T09:04:20.977Z,99621.31
2023-05-04T09:07:33.235Z,99608.78
2023-05-04T09:10:45.429Z,99613.91
2023-05-04T09:13:58.095Z,99629.95
2023-05-04T09:17:20.739Z,99627.80
2023-05-04T09:20:33.021Z,99615.34
2023-05-04T09:23:55.502Z,99621.50
2023-05-04T09:27:18.737Z,99614.84
2023-05-04T09:30:32.259Z,99620.23
2023-05-04T09:33:45.041Z,99611.80
2023-05-04T09:37:08.796Z,99611.70
2023-05-04T09:40:23.333Z,99613.92
2023-05-04T09:43:45.253Z,99607.05
2023-05-04T09:47:05.159Z,99622.95
2023-05-04T09:50:25.674Z,99624.53
2023-05-04T09:53:39.128Z,99619.77
2023-05-04T09:56:55.690Z,99602.89
2023-05-04T10:00:09.870Z,99610.30
2023-05-04T10:03:22.850Z,99593.97
2023-05-04T10:06:36.633Z,99586.54
2023-05-04T10:09:49.312Z,99593.45
2023-05-04T10:13:02.189Z,99604.31
2023-05-04T10:16:28.684Z,99601.50
2023-05-04T10:20:12.022Z,99614.67
2023-05-04T10:23:44.429Z,99594.29
2023-05-04T10:27:12.139Z,99580.08
2023-05-04T10:30:25.584Z,99577.28
2023-05-04T10:33:48.069Z,99579.77
2023-05-04T10:37:01.091Z,99576.69
2023-05-04T10:40:15.555Z,99566.36
2023-05-04T10:43:32.827Z,99564.05
2023-05-04T10:46:45.079Z,99553.49
2023-05-04T10:50:08.311Z,99575.94
2023-05-04T10:53:23.653Z,99577.73
2023-05-04T10:56:36.782Z,99578.42
2023-05-04T11:00:01.812Z,99565.56
2023-05-04T11:03:14.465Z,99558.70
2023-05-04T11:06:29.127Z,99557.23
2023-05-04T11:09:45.763Z,99556.28
2023-05-04T11:13:02.211Z,99549.63
2023-05-04T11:16:16.980Z,99547.86
2023-05-04T11:19:29.195Z,99541.70
2023-05-04T11:22:42.972Z,99532.59
2023-05-04T11:25:55.195Z,99542.91
2023-05-04T11:29:17.933Z,99551.22
2023-05-04T11:32:43.116Z,99543.63
2023-05-04T11:35:55.746Z,99536.09
2023-05-04T11:39:09.406Z,99529.50
2023-05-04T11:42:21.492Z,99533.13
2023-05-04T11:45:36.777Z,99505.09
2023-05-04T11:48:49.014Z,99510.14
2023-05-04T11:52:11.151Z,99521.08
2023-05-04T11:55:42.044Z,99527.61
2023-05-04T11:58:54.382Z,99516.98
2023-05-04T12:02:07.404Z,99511.36
2023-05-04T12:05:21.981Z,99495.70
2023-05-04T12:08:36.246Z,99501.09
2023-05-04T12:11:50.376Z,99505.97
2023-05-04T12:15:03.070Z,99495.72
2023-05-04T12:18:28.491Z,99493.14
2023-05-04T12:21:41.354Z,99481.47
2023-05-04T12:24:53.943Z,99488.42
2023-05-04T12:28:06.351Z,99499.13
2023-05-04T12:31:18.700Z,99512.31
2023-05-04T12:34:31.297Z,99507.44
2023-05-04T12:37:43.686Z,99483.31
2023-05-04T12:40:56.282Z,99481.72
2023-05-04T12:44:09.061Z,99488.70
2023-05-04T12:47:23.427Z,99487.00
2023-05-04T12:50:35.697Z,99485.19
2023-05-04T12:53:47.891Z,99493.77
2023-05-04T12:56:59.896Z,99487.84
2023-05-04T13:00:15.289Z,99485.05
2023-05-04T13:03:27.417Z,99469.31
2023-05-04T13:06:39.608Z,99467.03
2023-05-04T13:09:51.814Z,99462.28
2023-05-04T13:13:04.976Z,99462.95
2023-05-04T13:16:17.418Z,99461.17
2023-05-04T13:19:29.650Z,99464.08
2023-05-04T13:22:41.873Z,99457.82
2023-05-04T13:25:55.266Z,99448.00
2023-05-04T13:29:07.700Z,99437.80
2023-05-04T13:32:19.945Z,99438.69
2023-05-04T13:35:32.429Z,99428.30
2023-05-04T13:38:44.428Z,99438.41
2023-05-04T13:41:56.666Z,99423.17
2023-05-04T13:45:09.704Z,99419.02
2023-05-04T13:48:21.996Z,99416.89
2023-05-04T13:51:35.109Z,99406.94
2023-05-04T13:54:47.106Z,99405.23
2023-05-04T13:57:59.201Z,99399.66
2023-05-04T14:01:11.380Z,99393.84
2023-05-04T14:04:23.426Z,99393.19
2023-05-04T14:07:35.595Z,99385.58
2023-05-04T14:10:48.040Z,99384.93
2023-05-04T14:14:00.342Z,99375.91
2023-05-04T14:17:12.339Z,99381.58
2023-05-04T14:20:24.775Z,99365.41
2023-05-04T14:23:37.721Z,99369.39
2023-05-04T14:26:50.195Z,99385.23
2023-05-04T14:48:46.337Z,99382.09
2023-05-04T14:51:58.818Z,99383.47
2023-05-04T14:55:22.939Z,99377.55
2023-05-04T14:58:35.099Z,99376.55
2023-05-04T15:05:27.950Z,99376.18
2023-05-04T15:08:42.403Z,99374.34
2023-05-04T15:15:35.334Z,99389.92
2023-05-04T15:18:47.514Z,99391.85
2023-05-04T15:22:00.921Z,99395.36
2023-05-04T15:25:14.453Z,99388.17
2023-05-04T15:28:26.656Z,99390.06
2023-05-04T15:31:38.836Z,99387.55
2023-05-04T15:35:01.206Z,99387.88
2023-05-04T15:38:06.050Z,99389.09
2023-05-04T15:41:18.117Z,99392.45
2023-05-04T15:44:30.560Z,99391.44
2023-05-04T15:47:43.119Z,99386.75
2023-05-04T15:50:55.488Z,99379.89
2023-05-04T15:54:08.819Z,99376.02
2023-05-04T15:57:21.211Z,99368.64
2023-05-04T16:00:34.464Z,99385.41
2023-05-04T16:03:47.344Z,99374.84
2023-05-04T16:06:59.389Z,99380.38
2023-05-04T16:10:14.094Z,99377.02
2023-05-04T16:28:41.718Z,99368.20
2023-05-04T16:44:01.331Z,99359.76
2023-05-04T16:47:13.501Z,99364.09
2023-05-04T17:46:25.234Z,99381.89
2023-05-04T17:49:37.575Z,99399.42
2023-05-04T17:52:49.734Z,99407.25
2023-05-04T17:56:02.442Z,99406.91
2023-05-04T17:59:14.658Z,99410.33
2023-05-04T18:02:26.850Z,99401.72
2023-05-04T18:05:39.224Z,99405.58
2023-05-04T18:08:51.802Z,99405.66
2023-05-04T18:12:04.308Z,99404.68
2023-05-04T18:15:18.693Z,99403.67
2023-05-04T18:18:31.346Z,99410.98
2023-05-04T18:21:44.566Z,99418.19
2023-05-04T18:24:56.669Z,99424.81
2023-05-04T18:28:09.050Z,99434.13
2023-05-04T18:31:22.051Z,99435.48
2023-05-04T18:34:34.309Z,99442.41
2023-05-04T18:37:46.714Z,99447.34
2023-05-04T18:41:01.521Z,99456.89
2023-05-04T18:44:13.818Z,99447.09
2023-05-04T18:47:26.409Z,99446.82
2023-05-04T18:50:38.616Z,99440.39
2023-05-04T18:53:51.125Z,99442.63
2023-05-04T18:57:03.756Z,99440.34
2023-05-04T19:00:20.351Z,99447.09
2023-05-04T19:03:33.154Z,99451.32
2023-05-04T19:06:54.012Z,99447.10
2023-05-04T19:13:07.182Z,99429.86
2023-05-04T19:16:22.996Z,99429.57
2023-05-04T19:25:35.716Z,99434.75
2023-05-04T19:28:48.212Z,99429.42
2023-05-04T19:32:05.670Z,99439.38
2023-05-04T19:35:16.216Z,99437.27
2023-05-04T19:38:28.532Z,99446.06
2023-05-04T19:41:41.767Z,99440.33
2023-05-04T19:44:54.000Z,99440.16
2023-05-04T19:48:06.396Z,99437.79
2023-05-04T19:51:18.588Z,99447.03
2023-05-04T19:54:31.070Z,99433.27
2023-05-04T19:57:43.871Z,99430.19
2023-05-04T20:00:56.290Z,99427.07
2023-05-04T20:04:08.577Z,99424.55
2023-05-04T20:10:20.809Z,99422.02
2023-05-04T20:13:33.059Z,99417.05
2023-05-04T20:16:45.231Z,99416.16
2023-05-04T20:19:57.517Z,99415.64
2023-05-04T20:23:09.755Z,99419.47
2023-05-04T20:26:23.631Z,99415.31
2023-05-04T20:29:36.430Z,99411.47
2023-05-04T20:32:48.682Z,99417.36
2023-05-04T20:36:01.763Z,99410.70
2023-05-04T20:39:13.994Z,99411.48
2023-05-04T20:42:26.174Z,99402.19
2023-05-04T20:45:38.807Z,99382.36
2023-05-04T20:48:50.861Z,99405.69
2023-05-04T20:58:03.642Z,99412.46
2023-05-04T21:01:15.896Z,99405.13
2023-05-04T21:04:30.309Z,99399.95
2023-05-04T21:07:42.514Z,99399.05
2023-05-04T21:10:54.509Z,99399.53
2023-05-04T21:14:06.528Z,99392.52
2023-05-04T21:17:18.494Z,99395.09
2023-05-04T21:20:30.501Z,99396.95
2023-05-04T21:23:42.494Z,99396.88
2023-05-04T21:26:54.608Z,99393.14
2023-05-04T21:30:08.227Z,99395.18
2023-05-04T21:33:20.822Z,99389.06
2023-05-04T21:36:32.983Z,99385.91
2023-05-04T21:39:46.621Z,99392.30
2023-05-04T21:42:58.864Z,99386.62
2023-05-04T21:46:12.981Z,99385.41
2023-05-04T21:49:25.109Z,99389.05
2023-05-04T21:52:37.234Z,99393.39
2023-05-04T21:55:49.237Z,99387.27
2023-05-04T21:59:01.224Z,99396.04
2023-05-04T22:02:13.592Z,99404.72
2023-05-04T22:05:26.351Z,99396.30
2023-05-04T22:08:38.556Z,99393.78
2023-05-04T22:11:51.959Z,99397.16
2023-05-04T22:15:03.928Z,99389.06
2023-05-04T22:18:16.196Z,99385.10
2023-05-04T22:21:28.577Z,99386.77
2023-05-04T22:24:40.568Z,99383.04
2023-05-04T22:27:52.517Z,99381.11
2023-05-04T22:31:04.497Z,99385.10
2023-05-04T22:34:16.713Z,99389.56
2023-05-04T22:37:28.753Z,99385.10
2023-05-04T22:40:42.937Z,99388.48
2023-05-04T22:43:54.936Z,99382.72
2023-05-04T22:47:06.891Z,99377.28
2023-05-04T22:50:19.851Z,99379.95
2023-05-04T22:56:32.941Z,99367.05
2023-05-04T23:11:58.682Z,99369.61
2023-05-04T23:18:11.037Z,99370.09
2023-05-04T23:21:23.058Z,99363.34
